Ana Sayfa
METAR-TAF:

METAR-TAF

Havaalanları :

Lüderitz, Namibya

Enlem: 26-41S, Boylam: 015-15E, yükseklik: 130 m

Güncel hava durumu gözlemi

Rapor saat 00:00 UTC de 44 dakika önce yapıldı.
Rüzgar güneydan 10 kt
Sıcaklık 18°C
Nem 68%
Basınç 1012 hPa

METAR: FYLZ 280000Z AUTO 18010KT //// // ////// 18/12 Q1012

Saat: 02:44 (00:44 UTC)

Tahmin

Rapor saat 20:00 UTC de 4 saat ve 44 dakika önce yapıldı.
Ayın 27'si saat 21 UTC'den ayın 28'si saat 06 UTC'ye kadar geçerli Tahmin
Rüzgar güneydan 20 kt
Görüş mesafesi 10 km veya daha fazla
1500 m altında bulut yok ve kümülonimbus yok

TAF: FYLZ 272000Z 2721/2806 17020KT CAVOK

4.000'den fazla havaalanı için hava durumu gözlemleri ve tahminleri (METAR ve TAF raporları).

Kullanılabilir istasyonlar harita üzerinde sarı ve kırmızı noktalarla gösterilir.

İstasyonun adını görmek için fareyi noktanın üzerinde gezdirin.

Sonrasında hava gözlem ve tahminlerini görmek için tıklayın.

Haritayı değiştirmek için: yaklaştırmak için siyah artı işaretli yeşil düğmeye ve uzaklaştırmak için de eksi işaretli düğmeye hızla tıklayın; bitişik haritalar için yeşil okları kullanın.


METAR-TAF: